createdAt,value
2018-09-24T10:58:29.987Z,102153.98
2018-09-24T11:00:41.156Z,102146.57
2018-09-24T11:02:52.402Z,102144.83
2018-09-24T11:05:03.528Z,102143.09
2018-09-24T11:07:14.843Z,102141.73
2018-09-24T11:09:26.084Z,102147.27
2018-09-24T11:11:37.372Z,102136.22
2018-09-24T11:13:48.715Z,102137.18
2018-09-24T11:16:00.079Z,102135.45
2018-09-24T11:18:11.246Z,102132.92
2018-09-24T11:20:22.352Z,102132.51
2018-09-24T11:22:33.385Z,102133.33
2018-09-24T11:24:44.609Z,102137.14
2018-09-24T11:26:55.748Z,102128.20
2018-09-24T11:29:06.946Z,102132.50
2018-09-24T11:31:18.080Z,102127.48
2018-09-24T11:33:29.318Z,102120.73
2018-09-24T11:35:40.720Z,102123.34
2018-09-24T11:37:51.782Z,102132.03
2018-09-24T11:40:03.103Z,102122.18
2018-09-24T11:42:14.401Z,102106.65
2018-09-24T11:44:25.661Z,102114.93
2018-09-24T11:46:36.915Z,102112.23
2018-09-24T11:48:48.619Z,102123.41
2018-09-24T11:50:59.829Z,102111.66
2018-09-24T11:53:11.187Z,102107.61
2018-09-24T11:55:22.344Z,102101.35
2018-09-24T11:57:33.709Z,102101.18
2018-09-24T11:59:44.832Z,102089.12
2018-09-24T12:01:56.034Z,102091.32
2018-09-24T12:04:08.320Z,102091.86
2018-09-24T12:06:20.178Z,102093.52
2018-09-24T12:08:31.419Z,102096.94
2018-09-24T12:10:42.672Z,102099.96
2018-09-24T12:12:53.792Z,102092.42
2018-09-24T12:15:04.973Z,102099.09
2018-09-24T12:17:16.150Z,102097.72
2018-09-24T12:19:27.449Z,102090.59
2018-09-24T12:21:38.760Z,102087.53
2018-09-24T12:23:49.859Z,102091.97
2018-09-24T12:26:01.037Z,102087.17
2018-09-24T12:28:12.369Z,102088.04
2018-09-24T12:30:23.605Z,102086.80
2018-09-24T12:32:34.784Z,102084.52
2018-09-24T12:34:46.149Z,102083.89
2018-09-24T12:36:57.359Z,102087.31
2018-09-24T12:39:08.596Z,102092.43
2018-09-24T12:41:19.889Z,102091.92
2018-09-24T12:43:31.181Z,102080.78
2018-09-24T12:45:42.405Z,102080.55
2018-09-24T12:47:53.638Z,102074.66
2018-09-24T12:50:04.823Z,102074.56
2018-09-24T12:52:15.991Z,102076.22
2018-09-24T12:54:27.184Z,102072.78
2018-09-24T12:56:38.314Z,102076.34
2018-09-24T12:58:49.404Z,102069.67
2018-09-24T13:01:00.565Z,102070.86
2018-09-24T13:03:11.719Z,102068.39
2018-09-24T13:05:23.380Z,102073.78
2018-09-24T13:07:34.672Z,102065.53
2018-09-24T13:09:45.976Z,102067.48
2018-09-24T13:11:57.220Z,102070.76
2018-09-24T13:14:08.619Z,102073.63
2018-09-24T13:16:19.959Z,102067.67
2018-09-24T13:18:31.241Z,102070.73
2018-09-24T13:20:42.384Z,102069.05
2018-09-24T13:22:53.554Z,102070.92
2018-09-24T13:25:04.732Z,102058.17
2018-09-24T13:27:15.812Z,102066.48
2018-09-24T13:29:27.116Z,102060.58
2018-09-24T13:31:38.556Z,102059.41
2018-09-24T13:33:49.813Z,102068.50
2018-09-24T13:36:01.166Z,102063.97
2018-09-24T13:38:12.431Z,102072.69
2018-09-24T13:40:23.613Z,102062.95
2018-09-24T13:42:34.932Z,102057.69
2018-09-24T13:44:46.286Z,102067.44
2018-09-24T13:46:57.581Z,102062.59
2018-09-24T13:49:09.022Z,102063.92
2018-09-24T13:51:20.220Z,102056.47
2018-09-24T13:53:31.479Z,102049.32
2018-09-24T13:55:42.588Z,102048.92
2018-09-24T13:57:54.020Z,102055.70
2018-09-24T14:00:05.244Z,102051.17
2018-09-24T14:02:16.385Z,102046.63
2018-09-24T14:04:27.545Z,102040.25
2018-09-24T14:06:39.700Z,102049.39
2018-09-24T14:08:50.903Z,102043.97
2018-09-24T14:11:02.311Z,102049.69
2018-09-24T14:13:13.383Z,102049.02
2018-09-24T14:15:24.689Z,102046.42
2018-09-24T14:17:35.994Z,102047.34
2018-09-24T14:19:47.029Z,102045.15
2018-09-24T14:21:58.235Z,102044.89
2018-09-24T14:24:09.402Z,102037.07
2018-09-24T14:26:20.664Z,102046.02
2018-09-24T14:28:32.041Z,102046.53
2018-09-24T14:30:43.235Z,102045.95
2018-09-24T14:32:54.421Z,102043.97
2018-09-24T14:35:05.741Z,102044.48
2018-09-24T14:37:17.143Z,102046.89
2018-09-24T14:39:28.263Z,102044.09
2018-09-24T14:41:39.614Z,102040.30
2018-09-24T14:43:50.953Z,102046.83
2018-09-24T14:46:02.149Z,102045.81
2018-09-24T14:48:13.454Z,102042.17
2018-09-24T14:50:24.887Z,102044.48
2018-09-24T14:52:37.161Z,102034.98
2018-09-24T14:54:48.926Z,102040.91
2018-09-24T14:57:00.841Z,102038.31
2018-09-24T14:59:12.015Z,102034.27
2018-09-24T15:01:23.251Z,102033.00
2018-09-24T15:03:34.557Z,102037.73
2018-09-24T16:01:06.786Z,102028.41
2018-09-24T16:03:27.201Z,102025.89
2018-09-24T16:05:58.168Z,102037.88
2018-09-24T16:08:15.367Z,102026.81
2018-09-24T16:10:41.358Z,102030.88
2018-09-24T16:13:11.438Z,102030.13
2018-09-24T16:15:38.212Z,102032.45
2018-09-24T16:23:06.110Z,102041.63
2018-09-24T16:28:03.647Z,102047.18
2018-09-24T16:38:32.718Z,102053.13
2018-09-24T16:40:44.152Z,102060.39
2018-09-24T16:42:55.398Z,102064.06
2018-09-24T16:45:06.596Z,102065.84
2018-09-24T16:47:17.894Z,102067.17
2018-09-24T16:49:29.143Z,102065.92
2018-09-24T16:51:40.261Z,102061.03
2018-09-24T16:53:51.367Z,102058.84
2018-09-24T16:56:02.656Z,102056.56
2018-09-24T16:58:13.875Z,102061.03
2018-09-24T17:00:25.236Z,102069.09
2018-09-24T17:02:37.370Z,102066.20
2018-09-24T17:04:48.544Z,102073.93
2018-09-24T17:06:59.847Z,102075.48
2018-09-24T17:09:14.386Z,102078.26
2018-09-24T17:11:25.359Z,102074.88
2018-09-24T17:13:36.596Z,102078.39
2018-09-24T17:15:47.947Z,102076.70
2018-09-24T17:17:58.970Z,102077.70
2018-09-24T17:20:10.509Z,102086.20
2018-09-24T17:22:21.738Z,102088.56
2018-09-24T17:24:32.874Z,102090.92
2018-09-24T17:26:44.006Z,102095.07
2018-09-24T17:28:55.250Z,102097.94
2018-09-24T17:31:07.063Z,102097.66
2018-09-24T17:33:18.284Z,102100.94
2018-09-24T17:35:29.735Z,102102.06
2018-09-24T17:37:40.766Z,102107.18
2018-09-24T17:39:52.250Z,102111.73
2018-09-24T17:42:03.578Z,102108.92
2018-09-24T17:44:15.885Z,102118.34
2018-09-24T17:46:27.549Z,102122.85
2018-09-24T17:48:38.695Z,102123.88
2018-09-24T17:50:50.200Z,102128.83
2018-09-24T17:53:01.627Z,102132.43
2018-09-24T17:55:13.084Z,102131.64
2018-09-24T17:57:24.396Z,102134.36
2018-09-24T17:59:35.760Z,102137.63
2018-09-24T18:01:47.135Z,102142.61
2018-09-24T18:03:58.635Z,102147.59
2018-09-24T18:06:09.847Z,102145.94
2018-09-24T18:08:21.669Z,102148.24
2018-09-24T18:10:32.839Z,102145.14
2018-09-24T18:12:43.986Z,102149.91
2018-09-24T18:14:54.912Z,102149.04
2018-09-24T18:17:06.252Z,102154.81
2018-09-24T18:19:17.662Z,102160.56
2018-09-24T18:21:28.848Z,102161.05
2018-09-24T18:23:40.170Z,102161.96
2018-09-24T18:25:51.498Z,102170.42
2018-09-24T18:28:02.552Z,102172.20
2018-09-24T18:30:13.987Z,102173.11
2018-09-24T18:32:25.220Z,102174.42
2018-09-24T18:34:36.355Z,102179.72
2018-09-24T18:36:47.510Z,102176.20
2018-09-24T18:38:58.759Z,102187.69
2018-09-24T18:41:10.007Z,102190.45
2018-09-24T18:43:21.049Z,102192.25
2018-09-24T18:45:32.211Z,102191.45
2018-09-24T18:47:43.352Z,102186.09
2018-09-24T18:49:54.829Z,102193.43
2018-09-24T18:52:06.342Z,102193.81
2018-09-24T18:54:17.930Z,102196.42
2018-09-24T18:56:29.319Z,102206.47
2018-09-24T18:58:40.763Z,102210.37
2018-09-24T19:00:52.066Z,102214.67
2018-09-24T19:03:04.217Z,102215.17
2018-09-24T19:05:16.212Z,102217.81
2018-09-24T19:07:27.889Z,102218.75
2018-09-24T19:09:47.424Z,102219.14
2018-09-24T19:11:58.682Z,102217.81
2018-09-24T19:14:09.920Z,102222.31
2018-09-24T19:16:21.449Z,102221.47
2018-09-24T19:18:32.735Z,102223.81
2018-09-24T19:20:43.694Z,102223.50
2018-09-24T19:22:54.727Z,102230.56
2018-09-24T19:25:06.030Z,102234.12
2018-09-24T19:27:17.821Z,102236.34
2018-09-24T19:29:29.590Z,102237.22
2018-09-24T19:31:40.948Z,102243.37
2018-09-24T19:33:52.277Z,102241.14
2018-09-24T19:36:03.506Z,102243.41
2018-09-24T19:38:14.862Z,102244.39
2018-09-24T19:40:26.210Z,102244.91
2018-09-24T19:42:37.422Z,102243.62
2018-09-24T19:44:48.543Z,102244.94
2018-09-24T19:46:59.842Z,102244.11
2018-09-24T19:49:11.035Z,102246.72
2018-09-24T19:51:23.273Z,102262.62
2018-09-24T19:53:34.805Z,102261.71
2018-09-24T19:55:46.024Z,102260.36
2018-09-24T19:57:57.354Z,102263.42
2018-09-24T20:00:08.603Z,102270.86
2018-09-24T20:02:20.283Z,102272.29
2018-09-24T20:04:31.265Z,102268.33
2018-09-24T20:06:42.551Z,102264.36
2018-09-24T20:08:54.136Z,102270.06
2018-09-24T20:11:05.382Z,102267.91
2018-09-24T20:13:16.629Z,102267.48
2018-09-24T20:15:28.426Z,102265.78
2018-09-24T20:17:39.684Z,102268.46
2018-09-24T20:19:51.076Z,102272.50
2018-09-24T20:22:02.574Z,102262.92
2018-09-24T20:24:13.928Z,102270.19
2018-09-24T20:26:25.079Z,102283.60
2018-09-24T20:28:36.542Z,102279.83
2018-09-24T20:30:47.675Z,102280.94
2018-09-24T20:33:00.422Z,102285.95
2018-09-24T20:35:11.691Z,102285.66
2018-09-24T20:37:23.031Z,102291.11
2018-09-24T20:39:34.219Z,102293.54
2018-09-24T20:41:45.714Z,102297.20
2018-09-24T20:43:56.829Z,102302.64
2018-09-24T20:46:07.832Z,102298.80
2018-09-24T20:48:18.985Z,102300.23
2018-09-24T20:50:30.231Z,102306.50
2018-09-24T20:52:42.151Z,102304.79
2018-09-24T20:54:53.445Z,102305.30
2018-09-24T20:57:04.758Z,102306.28
2018-09-24T20:59:16.351Z,102305.91
2018-09-24T21:01:27.873Z,102307.74
2018-09-24T21:03:39.173Z,102308.24
2018-09-24T21:05:50.435Z,102308.30
2018-09-24T21:08:01.581Z,102311.45
2018-09-24T21:10:12.936Z,102313.30
2018-09-24T21:12:24.004Z,102321.66
2018-09-24T21:14:35.228Z,102316.47
2018-09-24T21:16:46.459Z,102313.94
2018-09-24T21:18:57.631Z,102317.59
2018-09-24T21:21:08.641Z,102320.72
2018-09-24T21:23:20.864Z,102317.25
2018-09-24T21:25:31.999Z,102325.63
2018-09-24T21:27:43.154Z,102325.63
2018-09-24T21:29:54.503Z,102325.23
2018-09-24T21:32:05.790Z,102325.73
2018-09-24T21:34:17.283Z,102328.84
2018-09-24T21:36:28.732Z,102322.76
2018-09-24T21:38:39.877Z,102318.83
2018-09-24T21:40:51.175Z,102332.06
2018-09-24T21:43:02.535Z,102335.65
2018-09-24T21:45:13.919Z,102333.91
2018-09-24T21:47:25.295Z,102336.17
2018-09-24T21:49:36.483Z,102338.86
2018-09-24T21:51:47.775Z,102337.62
2018-09-24T21:53:58.944Z,102334.63
2018-09-24T21:56:10.293Z,102338.66
2018-09-24T21:58:21.468Z,102340.97
2018-09-24T22:00:32.745Z,102340.78
2018-09-24T22:02:44.145Z,102349.35
2018-09-24T22:04:55.122Z,102344.82
2018-09-24T22:07:06.195Z,102340.27
2018-09-24T22:09:17.529Z,102348.37
2018-09-24T22:11:28.911Z,102342.89
2018-09-24T22:13:40.108Z,102344.77
2018-09-24T22:15:51.539Z,102349.59
2018-09-24T22:18:02.695Z,102352.16
2018-09-24T22:20:14.361Z,102362.19
2018-09-24T22:22:25.620Z,102370.55
2018-09-24T22:24:36.780Z,102361.34
2018-09-24T22:26:48.103Z,102363.46
2018-09-24T22:28:59.362Z,102361.77
2018-09-24T22:31:10.654Z,102360.48
2018-09-24T22:33:21.935Z,102362.29
2018-09-24T22:35:38.398Z,102360.92
2018-09-24T22:37:56.004Z,102366.63
2018-09-24T22:40:14.503Z,102368.36
2018-09-24T22:42:35.012Z,102373.20
2018-09-24T22:44:47.223Z,102377.99
2018-09-24T22:46:58.367Z,102367.41
2018-09-24T22:49:09.544Z,102367.38
2018-09-24T22:51:21.403Z,102369.57
2018-09-24T22:53:32.563Z,102364.75
2018-09-24T22:55:43.815Z,102370.89
2018-09-24T22:57:54.919Z,102370.92
2018-09-24T23:00:06.107Z,102372.74
2018-09-24T23:02:17.362Z,102378.96
2018-09-24T23:04:28.771Z,102379.52
2018-09-24T23:06:42.035Z,102381.44
2018-09-24T23:08:53.118Z,102379.33
2018-09-24T23:11:04.725Z,102383.70
2018-09-24T23:13:16.357Z,102391.59
2018-09-24T23:15:28.103Z,102393.44
2018-09-24T23:17:39.283Z,102400.53
2018-09-24T23:19:50.453Z,102406.68
2018-09-24T23:22:02.277Z,102399.66
2018-09-24T23:24:18.008Z,102401.84
2018-09-24T23:26:31.586Z,102412.34
2018-09-24T23:28:50.318Z,102414.13
2018-09-24T23:31:01.626Z,102413.88
2018-09-24T23:33:12.828Z,102418.47
2018-09-24T23:35:24.055Z,102408.25
2018-09-24T23:37:35.242Z,102408.02
2018-09-24T23:39:46.353Z,102407.73
2018-09-24T23:41:57.780Z,102406.88
2018-09-24T23:44:08.803Z,102404.67
2018-09-24T23:46:20.679Z,102403.73
2018-09-24T23:48:31.768Z,102405.44
2018-09-24T23:50:43.093Z,102413.28
2018-09-24T23:52:54.548Z,102413.32
2018-09-24T23:55:05.608Z,102415.95
2018-09-24T23:57:16.767Z,102417.70
2018-09-24T23:59:28.056Z,102416.78
